Time;durP1;ratioP1;P1;durP2;ratioP2;P2;SDS_P1;SDS_P2;PMS_P1;PMS_P2;Temp;Humidity;BMP_temperature;BMP_pressure;BME280_temperature;BME280_humidity;BME280_pressure;Samples;Min_cycle;Max_cycle;Signal;HPM_P1;HPM_P2
2022/11/17 00:01:22;;;;;;;;;10.67;4.00;;;;;;;;5080055;27;45311;-78
2022/11/17 00:03:48;;;;;;;;;9.33;5.33;;;;;;;;5084361;27;45369;-78
2022/11/17 00:06:13;;;;;;;;;5.00;4.00;;;;;;;;5080217;27;45493;-78
2022/11/17 00:08:39;;;;;;;;;7.67;4.00;;;;;;;;5081113;27;45211;-79
2022/11/17 00:11:04;;;;;;;;;4.00;4.00;;;;;;;;5079605;27;45248;-78
2022/11/17 00:16:14;;;;;;;;;7.67;5.00;;;;;;;;5080218;27;45325;-78
2022/11/17 00:21:25;;;;;;;;;6.00;3.67;;;;;;;;5086252;27;44864;-78
2022/11/17 00:23:51;;;;;;;;;6.67;6.00;;;;;;;;5085979;27;45346;-79
2022/11/17 00:26:18;;;;;;;;;10.00;5.00;;;;;;;;5081478;27;45287;-78
2022/11/17 00:28:43;;;;;;;;;8.33;5.00;;;;;;;;5081724;27;45176;-78
2022/11/17 00:34:05;;;;;;;;;6.67;4.00;;;;;;;;5093605;27;45256;-78
2022/11/17 00:36:50;;;;;;;;;4.33;2.00;;;;;;;;5094933;27;45472;-77
2022/11/17 00:39:17;;;;;;;;;5.33;4.00;;;;;;;;5089919;27;46506;-78
2022/11/17 00:41:42;;;;;;;;;8.00;3.67;;;;;;;;5091192;27;45534;-78
2022/11/17 00:44:07;;;;;;;;;8.00;4.67;;;;;;;;5079704;27;45349;-78
2022/11/17 00:46:33;;;;;;;;;4.00;3.00;;;;;;;;5079430;27;45419;-78
2022/11/17 00:48:59;;;;;;;;;6.67;1.67;;;;;;;;5090757;27;45432;-77
2022/11/17 00:51:24;;;;;;;;;5.00;3.33;;;;;;;;5081045;27;45295;-78
2022/11/17 00:53:50;;;;;;;;;5.00;5.00;;;;;;;;5080429;27;45310;-77
2022/11/17 00:56:15;;;;;;;;;5.67;3.00;;;;;;;;5080220;27;45296;-77
2022/11/17 00:58:40;;;;;;;;;3.67;2.00;;;;;;;;5083719;27;46107;-78
2022/11/17 01:01:06;;;;;;;;;5.00;4.00;;;;;;;;5080058;27;45283;-77
2022/11/17 01:03:32;;;;;;;;;3.00;3.00;;;;;;;;5084134;27;45282;-76
2022/11/17 01:06:02;;;;;;;;;10.33;3.33;;;;;;;;5095682;27;46137;-77
2022/11/17 01:08:27;;;;;;;;;3.00;3.00;;;;;;;;5087267;27;46741;-76
2022/11/17 01:10:52;;;;;;;;;6.33;1.33;;;;;;;;5082987;27;45256;-76
2022/11/17 01:13:17;;;;;;;;;4.33;1.67;;;;;;;;5084644;27;45541;-76
2022/11/17 01:15:43;;;;;;;;;4.33;2.00;;;;;;;;5081672;27;45473;-76
2022/11/17 01:18:08;;;;;;;;;7.67;3.00;;;;;;;;5082432;27;45306;-76
2022/11/17 01:20:33;;;;;;;;;6.00;2.00;;;;;;;;5082688;27;45414;-76
2022/11/17 01:22:58;;;;;;;;;5.67;3.00;;;;;;;;5094023;27;45387;-76
2022/11/17 01:25:23;;;;;;;;;5.33;2.00;;;;;;;;5094563;27;45311;-76
2022/11/17 01:27:49;;;;;;;;;7.33;2.67;;;;;;;;5089264;27;45615;-77
2022/11/17 01:30:16;;;;;;;;;2.33;1.00;;;;;;;;5084936;27;45280;-76
2022/11/17 01:32:41;;;;;;;;;1.00;1.00;;;;;;;;5089338;27;45537;-75
2022/11/17 01:35:07;;;;;;;;;3.00;2.33;;;;;;;;5090994;27;45227;-76
2022/11/17 01:37:32;;;;;;;;;3.00;1.00;;;;;;;;5086241;27;46939;-75
2022/11/17 01:39:57;;;;;;;;;3.00;1.00;;;;;;;;5096778;27;45218;-76
2022/11/17 01:42:24;;;;;;;;;1.00;1.00;;;;;;;;5087338;27;45658;-75
2022/11/17 01:45:00;;;;;;;;;3.33;1.67;;;;;;;;5099421;27;46639;-75
2022/11/17 01:47:28;;;;;;;;;5.33;2.33;;;;;;;;5092579;27;46502;-75
2022/11/17 01:49:57;;;;;;;;;2.67;0.67;;;;;;;;5082221;27;45303;-75
2022/11/17 01:52:23;;;;;;;;;1.33;1.00;;;;;;;;5087022;27;45432;-75
2022/11/17 01:54:48;;;;;;;;;0.00;0.00;;;;;;;;5082090;27;45252;-75
2022/11/17 01:57:19;;;;;;;;;1.33;0.00;;;;;;;;5087438;27;46235;-75
2022/11/17 01:59:47;;;;;;;;;2.33;1.00;;;;;;;;5085845;27;45472;-75
2022/11/17 02:02:12;;;;;;;;;1.00;1.00;;;;;;;;5094308;27;45251;-75
2022/11/17 02:04:40;;;;;;;;;2.00;0.67;;;;;;;;5081849;27;45207;-75
2022/11/17 02:07:26;;;;;;;;;2.67;1.00;;;;;;;;5087059;27;44996;-74
2022/11/17 02:09:52;;;;;;;;;2.00;0.00;;;;;;;;5081230;27;45362;-75
2022/11/17 02:12:17;;;;;;;;;2.00;1.00;;;;;;;;5081878;27;45322;-75
2022/11/17 02:14:43;;;;;;;;;4.67;2.00;;;;;;;;5095074;27;44763;-75
2022/11/17 02:17:09;;;;;;;;;4.00;1.00;;;;;;;;5097051;27;45437;-75
2022/11/17 02:19:37;;;;;;;;;1.67;0.33;;;;;;;;5081889;27;45308;-75
2022/11/17 02:22:02;;;;;;;;;5.00;0.33;;;;;;;;5089103;27;45217;-76
2022/11/17 02:25:03;;;;;;;;;2.67;1.00;;;;;;;;5086906;27;44848;-75
2022/11/17 02:27:43;;;;;;;;;0.00;0.00;;;;;;;;5038232;28;46183;-75
2022/11/17 02:30:14;;;;;;;;;0.33;0.00;;;;;;;;5093089;27;45262;-75
2022/11/17 02:32:42;;;;;;;;;0.00;0.00;;;;;;;;5092927;27;45311;-75
2022/11/17 02:35:07;;;;;;;;;2.67;1.00;;;;;;;;5088420;27;45253;-75
2022/11/17 02:37:40;;;;;;;;;2.00;1.00;;;;;;;;5085821;27;46288;-75
2022/11/17 02:40:12;;;;;;;;;3.00;0.00;;;;;;;;5084700;27;45461;-75
2022/11/17 02:45:28;;;;;;;;;0.00;0.00;;;;;;;;5082509;27;45315;-75
2022/11/17 02:47:54;;;;;;;;;1.67;1.00;;;;;;;;5086857;27;45382;-75
2022/11/17 02:50:21;;;;;;;;;1.00;0.33;;;;;;;;5081207;27;45181;-75
2022/11/17 02:52:46;;;;;;;;;2.00;1.00;;;;;;;;5086130;27;45398;-75
2022/11/17 02:55:12;;;;;;;;;3.00;0.33;;;;;;;;5080471;27;45482;-75
2022/11/17 02:57:39;;;;;;;;;4.00;0.00;;;;;;;;5084193;27;45315;-75
2022/11/17 03:00:17;;;;;;;;;2.67;0.00;;;;;;;;5081180;27;45286;-76
2022/11/17 03:02:55;;;;;;;;;2.00;1.00;;;;;;;;5084325;27;45461;-78
2022/11/17 03:05:34;;;;;;;;;0.67;0.00;;;;;;;;5083394;27;47009;-78
2022/11/17 03:08:05;;;;;;;;;0.00;0.00;;;;;;;;5085864;27;46222;-79
2022/11/17 03:10:36;;;;;;;;;1.00;0.00;;;;;;;;5085296;27;45300;-81
2022/11/17 03:13:16;;;;;;;;;0.00;0.00;;;;;;;;5083402;27;45247;-79
2022/11/17 03:15:52;;;;;;;;;3.00;0.00;;;;;;;;5093926;27;45863;-82
2022/11/17 03:18:27;;;;;;;;;0.00;0.00;;;;;;;;5082619;27;45307;-82
2022/11/17 03:20:55;;;;;;;;;1.00;0.00;;;;;;;;5079906;27;45483;-80
2022/11/17 03:23:25;;;;;;;;;1.00;1.00;;;;;;;;5085009;27;45212;-81
2022/11/17 03:25:53;;;;;;;;;0.00;0.00;;;;;;;;5080664;28;45430;-81
2022/11/17 03:28:20;;;;;;;;;0.00;0.00;;;;;;;;5086465;27;45448;-82
2022/11/17 03:30:46;;;;;;;;;0.00;0.00;;;;;;;;5082688;27;45322;-81
2022/11/17 03:33:18;;;;;;;;;3.67;0.00;;;;;;;;5088482;27;45392;-80
2022/11/17 03:35:47;;;;;;;;;1.33;0.00;;;;;;;;5096205;27;45414;-82
2022/11/17 03:38:14;;;;;;;;;0.00;0.00;;;;;;;;5084867;27;45232;-82
2022/11/17 03:40:43;;;;;;;;;0.67;0.00;;;;;;;;5094592;27;45392;-82
2022/11/17 03:43:11;;;;;;;;;2.00;0.00;;;;;;;;5085495;27;45496;-81
2022/11/17 03:45:39;;;;;;;;;0.00;0.00;;;;;;;;5080342;27;45433;-82
2022/11/17 03:48:11;;;;;;;;;2.00;0.00;;;;;;;;5084040;27;47242;-81
2022/11/17 03:50:40;;;;;;;;;0.33;0.00;;;;;;;;5080430;27;45411;-80
2022/11/17 03:53:05;;;;;;;;;0.00;0.00;;;;;;;;5083185;27;45323;-80
2022/11/17 03:55:36;;;;;;;;;1.00;0.00;;;;;;;;5082422;27;45256;-80
2022/11/17 03:58:08;;;;;;;;;1.00;0.00;;;;;;;;5083506;27;47912;-82
2022/11/17 04:00:33;;;;;;;;;0.00;0.00;;;;;;;;5079991;27;45303;-80
2022/11/17 04:02:58;;;;;;;;;1.00;0.00;;;;;;;;5084050;27;45378;-80
2022/11/17 04:05:24;;;;;;;;;1.00;0.00;;;;;;;;5082640;27;45297;-80
2022/11/17 04:07:49;;;;;;;;;0.00;0.00;;;;;;;;5085840;27;45508;-80
2022/11/17 04:10:19;;;;;;;;;0.00;0.00;;;;;;;;5080975;27;45347;-80
2022/11/17 04:18:12;;;;;;;;;0.00;0.00;;;;;;;;5082548;27;45272;-80
2022/11/17 04:20:37;;;;;;;;;0.00;0.00;;;;;;;;5079747;27;45229;-79
2022/11/17 04:23:13;;;;;;;;;0.00;0.00;;;;;;;;5086431;27;45383;-79
2022/11/17 04:28:37;;;;;;;;;0.00;0.00;;;;;;;;5085393;27;45433;-79
2022/11/17 04:31:03;;;;;;;;;2.33;0.00;;;;;;;;5079793;27;45531;-79
2022/11/17 04:33:29;;;;;;;;;0.00;0.00;;;;;;;;5082709;27;45485;-78
2022/11/17 04:35:54;;;;;;;;;1.00;0.00;;;;;;;;5081221;27;45402;-79
2022/11/17 04:38:20;;;;;;;;;0.00;0.00;;;;;;;;5083296;27;45480;-78
2022/11/17 04:41:52;;;;;;;;;0.00;0.00;;;;;;;;5079867;27;45424;-79
2022/11/17 04:43:30;;;;;;;;;0.00;0.00;;;;;;;;5092304;27;46458;-79
2022/11/17 04:45:59;;;;;;;;;1.00;0.00;;;;;;;;5079139;27;45433;-80
2022/11/17 04:48:25;;;;;;;;;0.00;0.00;;;;;;;;5086406;27;45438;-80
2022/11/17 04:50:53;;;;;;;;;0.00;0.00;;;;;;;;5079770;27;45290;-80
2022/11/17 04:53:19;;;;;;;;;0.00;0.00;;;;;;;;5081840;27;45276;-80
2022/11/17 04:55:44;;;;;;;;;0.00;0.00;;;;;;;;5077556;28;47148;-80
2022/11/17 04:58:09;;;;;;;;;0.00;0.00;;;;;;;;5083263;27;46964;-80
2022/11/17 05:00:34;;;;;;;;;0.00;0.00;;;;;;;;5079296;27;45344;-79
2022/11/17 05:02:59;;;;;;;;;0.00;0.00;;;;;;;;5083933;27;45315;-79
2022/11/17 05:05:25;;;;;;;;;0.00;0.00;;;;;;;;5079321;28;45344;-80
2022/11/17 05:07:50;;;;;;;;;0.00;0.00;;;;;;;;5079679;27;45512;-79
2022/11/17 05:10:15;;;;;;;;;0.00;0.00;;;;;;;;5079133;27;45284;-80
2022/11/17 05:17:03;;;;;;;;;0.00;0.00;;;;;;;;5080889;27;45343;-79
2022/11/17 05:18:09;;;;;;;;;0.00;0.00;;;;;;;;5087729;27;45303;-78
2022/11/17 05:20:34;;;;;;;;;0.00;0.00;;;;;;;;5081764;27;45323;-79
2022/11/17 05:25:43;;;;;;;;;0.00;0.00;;;;;;;;5088308;27;46462;-79
2022/11/17 05:28:08;;;;;;;;;2.33;0.00;;;;;;;;5086551;27;46993;-78
2022/11/17 05:30:33;;;;;;;;;0.00;0.00;;;;;;;;5086528;27;45456;-78
2022/11/17 05:32:59;;;;;;;;;1.00;0.00;;;;;;;;5088232;27;45209;-78
2022/11/17 05:35:24;;;;;;;;;0.00;0.00;;;;;;;;5091508;27;45481;-78
2022/11/17 05:37:49;;;;;;;;;0.00;0.00;;;;;;;;5091198;27;45395;-78
2022/11/17 05:40:14;;;;;;;;;0.00;0.00;;;;;;;;5091868;27;45328;-78
2022/11/17 05:42:39;;;;;;;;;1.33;0.00;;;;;;;;5090685;27;45325;-78
2022/11/17 05:45:05;;;;;;;;;0.00;0.00;;;;;;;;5078898;27;45515;-80
2022/11/17 05:47:30;;;;;;;;;0.00;0.00;;;;;;;;5083889;27;45420;-78
2022/11/17 05:49:55;;;;;;;;;1.00;0.00;;;;;;;;5084638;27;45330;-78
2022/11/17 05:52:20;;;;;;;;;1.00;0.00;;;;;;;;5084546;27;45532;-78
2022/11/17 05:54:46;;;;;;;;;0.00;0.00;;;;;;;;5082463;27;45601;-77
2022/11/17 05:57:14;;;;;;;;;0.00;0.00;;;;;;;;5087889;27;45287;-78
2022/11/17 05:59:47;;;;;;;;;3.00;0.00;;;;;;;;5083689;27;45165;-78
2022/11/17 06:02:32;;;;;;;;;1.00;0.00;;;;;;;;5088554;27;45345;-76
2022/11/17 06:04:58;;;;;;;;;0.00;0.00;;;;;;;;5084421;27;45501;-76
2022/11/17 06:07:23;;;;;;;;;0.00;0.00;;;;;;;;5087065;27;45385;-76
2022/11/17 06:09:49;;;;;;;;;1.00;1.00;;;;;;;;5082018;27;45255;-77
2022/11/17 06:12:14;;;;;;;;;2.00;0.00;;;;;;;;5082269;27;44731;-77
2022/11/17 06:14:40;;;;;;;;;0.33;0.00;;;;;;;;5081939;27;45275;-80
2022/11/17 06:17:26;;;;;;;;;0.00;0.00;;;;;;;;5081736;27;46036;-78
2022/11/17 06:19:56;;;;;;;;;1.00;0.00;;;;;;;;5081925;27;45458;-79
2022/11/17 06:22:21;;;;;;;;;1.00;0.00;;;;;;;;5083414;27;45320;-79
2022/11/17 06:24:46;;;;;;;;;0.00;0.00;;;;;;;;5088911;27;45444;-81
2022/11/17 06:27:13;;;;;;;;;2.00;0.00;;;;;;;;5085759;27;48203;-79
2022/11/17 06:29:38;;;;;;;;;0.00;0.00;;;;;;;;5081183;27;45415;-80
2022/11/17 06:32:03;;;;;;;;;1.00;1.00;;;;;;;;5088127;27;45507;-79
2022/11/17 06:34:30;;;;;;;;;1.00;0.00;;;;;;;;5096108;27;45212;-80
2022/11/17 06:36:55;;;;;;;;;0.00;0.00;;;;;;;;5085456;27;45397;-81
2022/11/17 06:39:21;;;;;;;;;1.00;0.00;;;;;;;;5086055;27;45268;-80
2022/11/17 06:41:46;;;;;;;;;1.33;0.00;;;;;;;;5092835;27;45428;-79
2022/11/17 06:44:11;;;;;;;;;2.00;0.00;;;;;;;;5090765;27;45280;-80
2022/11/17 06:46:36;;;;;;;;;1.00;1.00;;;;;;;;5082867;27;46170;-79
2022/11/17 06:49:03;;;;;;;;;0.50;0.00;;;;;;;;5081231;27;45485;-80
2022/11/17 06:51:28;;;;;;;;;2.75;0.00;;;;;;;;5082082;27;45369;-80
2022/11/17 06:53:53;;;;;;;;;0.00;0.00;;;;;;;;5086925;27;45337;-80
2022/11/17 06:56:18;;;;;;;;;3.67;0.00;;;;;;;;5079803;27;47153;-79
2022/11/17 06:58:44;;;;;;;;;0.00;0.00;;;;;;;;5083063;27;45413;-79
2022/11/17 07:01:10;;;;;;;;;1.00;0.00;;;;;;;;5079070;27;45322;-78
2022/11/17 07:03:36;;;;;;;;;0.00;0.00;;;;;;;;5082882;27;45881;-77
2022/11/17 07:06:06;;;;;;;;;0.00;0.00;;;;;;;;5080896;27;45481;-77
2022/11/17 07:08:31;;;;;;;;;1.67;1.00;;;;;;;;5089459;27;45328;-78
2022/11/17 07:11:00;;;;;;;;;1.67;0.00;;;;;;;;5081060;27;45475;-78
2022/11/17 07:13:25;;;;;;;;;0.00;0.00;;;;;;;;5084959;27;45381;-77
2022/11/17 07:15:51;;;;;;;;;1.75;1.00;;;;;;;;5081020;27;45419;-76
2022/11/17 07:18:17;;;;;;;;;2.00;0.00;;;;;;;;5082324;27;45299;-79
2022/11/17 07:20:42;;;;;;;;;1.00;1.00;;;;;;;;5095239;27;45466;-78
2022/11/17 07:23:07;;;;;;;;;0.00;0.00;;;;;;;;5083572;27;45297;-79
2022/11/17 07:25:33;;;;;;;;;1.00;0.00;;;;;;;;5080716;27;46305;-79
2022/11/17 07:27:58;;;;;;;;;2.25;0.50;;;;;;;;5085491;27;45370;-79
2022/11/17 07:30:24;;;;;;;;;3.50;1.50;;;;;;;;5080923;27;45271;-79
2022/11/17 07:32:49;;;;;;;;;2.00;2.00;;;;;;;;5086173;27;45213;-79
2022/11/17 07:35:14;;;;;;;;;1.00;1.00;;;;;;;;5087053;27;47273;-79
2022/11/17 07:37:40;;;;;;;;;3.00;0.00;;;;;;;;5086989;27;45428;-79
2022/11/17 07:40:05;;;;;;;;;2.33;0.67;;;;;;;;5092323;27;45259;-79
2022/11/17 07:42:31;;;;;;;;;2.33;1.00;;;;;;;;5085553;27;45156;-79
2022/11/17 07:44:56;;;;;;;;;1.00;0.00;;;;;;;;5080279;27;45867;-79
2022/11/17 07:47:21;;;;;;;;;0.00;0.00;;;;;;;;5083423;27;45367;-81
2022/11/17 07:49:47;;;;;;;;;2.00;0.75;;;;;;;;5083840;27;45161;-79
2022/11/17 07:52:12;;;;;;;;;8.25;5.75;;;;;;;;5084544;27;45260;-79
2022/11/17 07:54:37;;;;;;;;;3.00;1.00;;;;;;;;5080441;27;45277;-79
2022/11/17 07:57:02;;;;;;;;;3.00;1.00;;;;;;;;5082701;27;45336;-79
2022/11/17 07:59:27;;;;;;;;;1.33;1.00;;;;;;;;5080523;27;45476;-79
2022/11/17 08:01:52;;;;;;;;;0.00;0.00;;;;;;;;5082260;27;45567;-79
2022/11/17 08:04:18;;;;;;;;;4.33;3.33;;;;;;;;5080103;27;45307;-79
2022/11/17 08:06:44;;;;;;;;;3.33;2.00;;;;;;;;5082359;27;45303;-78
2022/11/17 08:09:11;;;;;;;;;2.33;0.33;;;;;;;;5080465;27;45375;-78
2022/11/17 08:11:36;;;;;;;;;2.33;1.00;;;;;;;;5081400;27;45564;-77
2022/11/17 08:14:01;;;;;;;;;3.00;0.67;;;;;;;;5089240;27;46841;-77
2022/11/17 08:16:29;;;;;;;;;3.00;1.00;;;;;;;;5084468;27;45291;-77
2022/11/17 08:18:55;;;;;;;;;3.00;0.67;;;;;;;;5084339;27;44694;-77
2022/11/17 08:21:20;;;;;;;;;2.00;1.33;;;;;;;;5079242;27;45457;-77
2022/11/17 08:23:48;;;;;;;;;0.67;0.00;;;;;;;;5088675;27;45429;-75
2022/11/17 08:26:13;;;;;;;;;0.00;0.00;;;;;;;;5080576;27;45327;-76
2022/11/17 08:28:38;;;;;;;;;5.00;0.67;;;;;;;;5086615;27;45242;-76
2022/11/17 08:31:04;;;;;;;;;1.00;1.00;;;;;;;;5078641;27;45638;-77
2022/11/17 08:33:30;;;;;;;;;0.67;0.67;;;;;;;;5087825;27;45366;-75
2022/11/17 08:35:57;;;;;;;;;1.67;0.67;;;;;;;;5084539;27;45324;-78
2022/11/17 08:38:23;;;;;;;;;1.00;1.00;;;;;;;;5089710;27;44949;-79
2022/11/17 08:40:49;;;;;;;;;1.33;1.33;;;;;;;;5093680;27;45303;-78
2022/11/17 08:43:14;;;;;;;;;5.00;1.00;;;;;;;;5082286;27;45394;-78
2022/11/17 08:45:40;;;;;;;;;0.00;0.00;;;;;;;;5079669;27;44627;-78
2022/11/17 08:48:06;;;;;;;;;3.00;1.00;;;;;;;;5085910;27;46038;-77
2022/11/17 08:50:31;;;;;;;;;3.67;1.00;;;;;;;;5079455;27;45275;-78
2022/11/17 08:52:56;;;;;;;;;3.67;1.00;;;;;;;;5081520;27;46618;-78
2022/11/17 08:55:21;;;;;;;;;2.33;0.00;;;;;;;;5079840;27;45273;-77
2022/11/17 08:57:47;;;;;;;;;2.00;1.00;;;;;;;;5082279;27;45449;-78
2022/11/17 09:00:12;;;;;;;;;2.00;0.00;;;;;;;;5079337;28;45453;-78
2022/11/17 09:02:37;;;;;;;;;0.00;0.00;;;;;;;;5082026;27;45005;-77
2022/11/17 09:05:03;;;;;;;;;2.00;0.33;;;;;;;;5080567;27;45371;-78
2022/11/17 09:07:31;;;;;;;;;1.00;1.00;;;;;;;;5082525;27;45307;-78
2022/11/17 09:09:56;;;;;;;;;3.67;0.67;;;;;;;;5079302;27;45463;-77
2022/11/17 09:12:21;;;;;;;;;0.33;0.33;;;;;;;;5081603;27;45428;-77
2022/11/17 09:14:46;;;;;;;;;2.00;1.00;;;;;;;;5079319;27;45335;-77
2022/11/17 09:17:12;;;;;;;;;2.67;0.67;;;;;;;;5079541;27;45257;-77
2022/11/17 09:19:37;;;;;;;;;3.25;0.00;;;;;;;;5084743;27;45630;-76
2022/11/17 09:22:02;;;;;;;;;1.00;0.00;;;;;;;;5082139;27;45456;-76
2022/11/17 09:24:27;;;;;;;;;4.00;1.33;;;;;;;;5086555;27;45371;-77
2022/11/17 09:26:53;;;;;;;;;2.67;1.00;;;;;;;;5099535;27;45413;-77
2022/11/17 09:29:18;;;;;;;;;0.00;0.00;;;;;;;;5087927;27;45251;-77
2022/11/17 09:31:43;;;;;;;;;2.00;2.00;;;;;;;;5083461;27;45356;-77
2022/11/17 09:34:09;;;;;;;;;2.00;1.00;;;;;;;;5088067;27;45224;-77
2022/11/17 09:36:34;;;;;;;;;2.67;1.00;;;;;;;;5082805;27;45520;-76
2022/11/17 09:38:59;;;;;;;;;2.67;1.67;;;;;;;;5090077;27;46014;-76
2022/11/17 09:41:26;;;;;;;;;3.33;2.00;;;;;;;;5088016;27;45454;-76
2022/11/17 09:43:58;;;;;;;;;4.67;1.00;;;;;;;;5088960;27;45212;-76
2022/11/17 09:46:46;;;;;;;;;0.00;0.00;;;;;;;;5085458;27;45282;-76
2022/11/17 09:49:16;;;;;;;;;1.33;1.00;;;;;;;;5075317;27;45927;-77
2022/11/17 09:51:42;;;;;;;;;3.00;1.67;;;;;;;;5084624;27;45312;-77
2022/11/17 09:54:25;;;;;;;;;2.67;1.00;;;;;;;;5082366;27;45309;-76
2022/11/17 09:56:50;;;;;;;;;3.67;2.00;;;;;;;;5085031;27;45522;-76
2022/11/17 09:59:18;;;;;;;;;2.67;2.00;;;;;;;;5086027;27;45450;-77
2022/11/17 10:01:43;;;;;;;;;2.67;2.00;;;;;;;;5084027;27;45391;-76
2022/11/17 10:04:13;;;;;;;;;1.00;1.00;;;;;;;;5081800;27;45448;-76
2022/11/17 10:06:41;;;;;;;;;2.33;2.00;;;;;;;;5083547;27;45398;-76
2022/11/17 10:09:25;;;;;;;;;4.00;0.00;;;;;;;;5081965;27;45354;-77
2022/11/17 10:11:51;;;;;;;;;3.00;2.00;;;;;;;;5080401;27;47226;-76
2022/11/17 10:14:19;;;;;;;;;2.00;1.00;;;;;;;;5087911;27;45334;-77
2022/11/17 10:16:54;;;;;;;;;4.67;1.67;;;;;;;;5081066;27;45296;-76
2022/11/17 10:19:24;;;;;;;;;3.00;2.00;;;;;;;;5084218;27;45388;-77
2022/11/17 10:21:56;;;;;;;;;3.00;2.00;;;;;;;;5081308;27;45452;-76
2022/11/17 10:24:33;;;;;;;;;2.00;2.00;;;;;;;;5087476;27;45172;-75
2022/11/17 10:26:59;;;;;;;;;2.33;1.33;;;;;;;;5084888;27;45479;-75
2022/11/17 10:29:24;;;;;;;;;3.00;2.00;;;;;;;;5086330;27;45636;-76
2022/11/17 10:31:49;;;;;;;;;5.67;1.33;;;;;;;;5083070;27;45534;-76
2022/11/17 10:34:34;;;;;;;;;4.00;2.00;;;;;;;;5089601;27;45338;-76
2022/11/17 10:37:12;;;;;;;;;5.33;2.00;;;;;;;;5083719;27;45386;-76
2022/11/17 10:39:38;;;;;;;;;5.67;2.00;;;;;;;;5081197;27;45573;-77
2022/11/17 10:42:26;;;;;;;;;7.33;3.00;;;;;;;;5083841;27;45525;-75
2022/11/17 10:44:52;;;;;;;;;2.67;1.67;;;;;;;;5093725;27;45278;-76
2022/11/17 10:47:26;;;;;;;;;1.33;0.33;;;;;;;;5098924;27;45481;-76
2022/11/17 10:50:09;;;;;;;;;3.67;1.00;;;;;;;;5086869;27;45306;-75
2022/11/17 10:52:35;;;;;;;;;3.00;0.67;;;;;;;;5084947;27;45663;-75
2022/11/17 10:55:19;;;;;;;;;3.00;1.00;;;;;;;;5082456;27;45426;-75
2022/11/17 10:57:46;;;;;;;;;0.00;0.00;;;;;;;;5084562;27;45223;-75
2022/11/17 11:00:27;;;;;;;;;0.67;0.33;;;;;;;;5082380;27;46139;-75
2022/11/17 11:03:14;;;;;;;;;1.00;0.33;;;;;;;;5083375;27;45417;-75
2022/11/17 11:05:53;;;;;;;;;2.00;0.00;;;;;;;;5083877;27;45317;-75
2022/11/17 11:08:21;;;;;;;;;2.00;1.00;;;;;;;;5081907;27;45436;-74
2022/11/17 11:10:49;;;;;;;;;0.00;0.00;;;;;;;;5080948;27;45307;-75
2022/11/17 11:13:21;;;;;;;;;2.00;2.00;;;;;;;;5085845;27;47091;-75
2022/11/17 11:15:47;;;;;;;;;1.00;1.00;;;;;;;;5081291;27;45378;-75
2022/11/17 11:18:13;;;;;;;;;0.00;0.00;;;;;;;;5086776;27;44823;-75
2022/11/17 11:20:48;;;;;;;;;3.00;1.00;;;;;;;;5081855;27;45191;-74
2022/11/17 11:23:19;;;;;;;;;5.00;1.00;;;;;;;;5091418;27;45282;-75
2022/11/17 11:25:50;;;;;;;;;1.33;1.00;;;;;;;;5093076;27;45298;-75
2022/11/17 11:28:24;;;;;;;;;4.00;1.00;;;;;;;;5083393;27;45216;-75
2022/11/17 11:30:57;;;;;;;;;2.67;1.00;;;;;;;;5092868;27;45732;-76
2022/11/17 11:33:40;;;;;;;;;2.00;0.67;;;;;;;;5083078;27;45212;-75
2022/11/17 11:36:13;;;;;;;;;3.00;0.00;;;;;;;;5085125;27;45303;-76
2022/11/17 11:38:45;;;;;;;;;1.33;0.33;;;;;;;;5091079;27;45486;-75
2022/11/17 11:41:29;;;;;;;;;2.33;0.67;;;;;;;;5093782;27;45680;-76
2022/11/17 11:43:56;;;;;;;;;4.33;1.33;;;;;;;;5085212;27;45223;-75
2022/11/17 11:46:35;;;;;;;;;1.00;1.00;;;;;;;;5082620;27;45462;-76
2022/11/17 11:49:06;;;;;;;;;1.33;1.00;;;;;;;;5083956;27;46436;-76
2022/11/17 11:51:35;;;;;;;;;2.67;2.00;;;;;;;;5081272;27;45290;-77
2022/11/17 11:54:04;;;;;;;;;2.00;0.67;;;;;;;;5089255;27;46140;-76
2022/11/17 11:56:32;;;;;;;;;3.00;1.00;;;;;;;;5081165;27;45239;-75
2022/11/17 11:59:12;;;;;;;;;3.00;2.00;;;;;;;;5089531;27;45344;-74
2022/11/17 12:01:54;;;;;;;;;1.00;0.33;;;;;;;;5080082;27;45577;-75
2022/11/17 12:04:22;;;;;;;;;2.00;1.00;;;;;;;;5081606;27;46444;-74
2022/11/17 12:06:52;;;;;;;;;2.00;1.00;;;;;;;;5084497;27;45263;-75
2022/11/17 12:09:36;;;;;;;;;3.33;1.00;;;;;;;;5087934;27;45391;-74
2022/11/17 12:12:06;;;;;;;;;3.00;2.00;;;;;;;;5090185;27;45544;-75
2022/11/17 12:14:33;;;;;;;;;2.33;1.67;;;;;;;;5091147;27;45271;-74
2022/11/17 12:17:13;;;;;;;;;1.67;0.67;;;;;;;;5094260;27;45275;-74
2022/11/17 12:19:49;;;;;;;;;0.67;0.00;;;;;;;;5080518;27;45361;-74
2022/11/17 12:22:21;;;;;;;;;2.00;0.00;;;;;;;;5083168;27;46018;-75
2022/11/17 12:24:46;;;;;;;;;2.00;1.67;;;;;;;;5084319;27;45589;-74
2022/11/17 12:27:33;;;;;;;;;2.00;0.00;;;;;;;;5082261;27;45281;-75
2022/11/17 12:29:59;;;;;;;;;4.00;3.00;;;;;;;;5080005;27;45734;-75
2022/11/17 12:32:42;;;;;;;;;4.00;3.00;;;;;;;;5093437;27;47006;-74
2022/11/17 12:35:26;;;;;;;;;4.33;2.33;;;;;;;;5087309;27;45486;-75
2022/11/17 12:38:30;;;;;;;;;1.00;1.00;;;;;;;;5081481;27;45433;-75
2022/11/17 12:40:55;;;;;;;;;0.33;0.00;;;;;;;;5083088;27;45150;-73
2022/11/17 12:43:21;;;;;;;;;1.00;0.00;;;;;;;;5079379;27;45393;-74
2022/11/17 12:45:52;;;;;;;;;2.67;0.00;;;;;;;;5080304;27;46017;-74
2022/11/17 12:48:26;;;;;;;;;1.00;0.00;;;;;;;;5080668;27;45400;-76
2022/11/17 12:50:52;;;;;;;;;2.33;0.00;;;;;;;;5079624;27;45418;-75
2022/11/17 12:53:17;;;;;;;;;0.00;0.00;;;;;;;;5085140;27;45516;-79
2022/11/17 12:55:51;;;;;;;;;1.00;0.00;;;;;;;;5081427;28;45369;-78
2022/11/17 12:58:37;;;;;;;;;1.00;1.00;;;;;;;;5089553;27;46383;-79
2022/11/17 13:01:14;;;;;;;;;0.00;0.00;;;;;;;;5063186;27;45353;-78
2022/11/17 13:03:39;;;;;;;;;1.33;1.00;;;;;;;;5096094;27;45398;-78
2022/11/17 13:06:06;;;;;;;;;2.00;1.00;;;;;;;;5085606;27;45215;-78
2022/11/17 13:08:31;;;;;;;;;1.00;0.00;;;;;;;;5099498;27;45445;-78
2022/11/17 13:11:13;;;;;;;;;0.67;0.00;;;;;;;;5085780;27;45259;-78
2022/11/17 13:13:39;;;;;;;;;0.00;0.00;;;;;;;;5086216;27;45419;-78
2022/11/17 13:16:04;;;;;;;;;0.00;0.00;;;;;;;;5099612;27;45364;-78
2022/11/17 13:18:29;;;;;;;;;0.67;0.67;;;;;;;;5093931;27;45497;-79
2022/11/17 13:20:55;;;;;;;;;1.00;0.00;;;;;;;;5089201;27;45644;-78
2022/11/17 13:23:24;;;;;;;;;0.00;0.00;;;;;;;;5089564;27;45400;-78
2022/11/17 13:26:06;;;;;;;;;0.00;0.00;;;;;;;;5085587;27;45330;-77
2022/11/17 13:28:31;;;;;;;;;0.00;0.00;;;;;;;;5090388;27;45598;-79
2022/11/17 13:30:57;;;;;;;;;0.33;0.33;;;;;;;;5086588;27;45363;-79
2022/11/17 13:33:23;;;;;;;;;0.00;0.00;;;;;;;;5088705;27;45731;-78
2022/11/17 13:36:02;;;;;;;;;0.00;0.00;;;;;;;;5091177;27;46074;-79
2022/11/17 13:38:28;;;;;;;;;0.00;0.00;;;;;;;;5088845;27;45909;-78
2022/11/17 13:40:53;;;;;;;;;0.00;0.00;;;;;;;;5099858;27;45670;-79
2022/11/17 13:43:20;;;;;;;;;2.00;0.67;;;;;;;;5095623;27;45186;-78
2022/11/17 13:45:46;;;;;;;;;2.00;0.00;;;;;;;;5090258;27;45291;-78
2022/11/17 13:48:33;;;;;;;;;0.00;0.00;;;;;;;;5099768;27;45355;-77
2022/11/17 13:51:17;;;;;;;;;0.33;0.00;;;;;;;;5083686;27;45392;-77
2022/11/17 13:53:44;;;;;;;;;2.67;1.00;;;;;;;;5092035;27;45724;-77
2022/11/17 13:56:24;;;;;;;;;0.00;0.00;;;;;;;;5097913;27;45403;-77
2022/11/17 13:58:50;;;;;;;;;0.00;0.00;;;;;;;;5095933;27;45332;-78
2022/11/17 14:01:21;;;;;;;;;1.00;0.00;;;;;;;;5081184;27;45396;-78
2022/11/17 14:03:46;;;;;;;;;1.00;1.00;;;;;;;;5083496;27;45440;-78
2022/11/17 14:06:12;;;;;;;;;0.67;0.00;;;;;;;;5083816;27;45398;-77
2022/11/17 14:08:38;;;;;;;;;5.67;0.00;;;;;;;;5086293;27;45394;-77
2022/11/17 14:11:15;;;;;;;;;0.00;0.00;;;;;;;;5086838;27;45539;-78
2022/11/17 14:13:41;;;;;;;;;1.00;0.00;;;;;;;;5085412;27;45224;-77
2022/11/17 14:16:25;;;;;;;;;0.00;0.00;;;;;;;;5081569;27;45302;-78
2022/11/17 14:18:54;;;;;;;;;0.00;0.00;;;;;;;;5085931;27;45238;-78
2022/11/17 14:21:19;;;;;;;;;0.33;0.00;;;;;;;;5080081;27;45352;-77
2022/11/17 14:23:45;;;;;;;;;1.00;0.00;;;;;;;;5085666;27;46069;-77
2022/11/17 14:26:20;;;;;;;;;1.00;1.00;;;;;;;;5081494;27;45516;-78
2022/11/17 14:28:46;;;;;;;;;2.00;1.00;;;;;;;;5087263;27;45281;-77
2022/11/17 14:31:12;;;;;;;;;4.33;2.00;;;;;;;;5095739;27;45329;-73
2022/11/17 14:33:37;;;;;;;;;0.00;0.00;;;;;;;;5088106;27;45355;-73
2022/11/17 14:36:03;;;;;;;;;2.00;0.33;;;;;;;;5086093;27;46285;-74
2022/11/17 14:38:28;;;;;;;;;3.00;1.33;;;;;;;;5088977;27;45165;-75
2022/11/17 14:40:53;;;;;;;;;3.00;1.00;;;;;;;;5081448;27;45223;-76
2022/11/17 14:43:19;;;;;;;;;4.00;0.33;;;;;;;;5078126;27;45967;-75
2022/11/17 14:45:45;;;;;;;;;0.00;0.00;;;;;;;;5090467;27;47462;-76
2022/11/17 14:48:10;;;;;;;;;1.00;1.00;;;;;;;;5087351;27;45259;-75
2022/11/17 14:50:36;;;;;;;;;1.00;1.00;;;;;;;;5082505;27;45269;-75
2022/11/17 14:53:02;;;;;;;;;1.00;1.00;;;;;;;;5091377;27;45331;-75
2022/11/17 14:55:27;;;;;;;;;0.00;0.00;;;;;;;;5096368;27;47208;-76
2022/11/17 14:57:52;;;;;;;;;3.00;2.00;;;;;;;;5088142;27;45331;-75
2022/11/17 15:00:18;;;;;;;;;1.00;0.00;;;;;;;;5089490;27;45312;-76
2022/11/17 15:02:44;;;;;;;;;1.33;0.33;;;;;;;;5093727;27;46046;-76
2022/11/17 15:05:09;;;;;;;;;3.00;3.00;;;;;;;;5083404;27;48229;-76
2022/11/17 15:07:34;;;;;;;;;45.50;36.25;;;;;;;;5083959;27;45418;-75
2022/11/17 15:10:00;;;;;;;;;2.33;1.00;;;;;;;;5101216;27;45333;-76
2022/11/17 15:12:25;;;;;;;;;2.00;2.00;;;;;;;;5082391;27;45475;-76
2022/11/17 15:14:50;;;;;;;;;3.67;1.00;;;;;;;;5089010;27;45618;-77
2022/11/17 15:17:16;;;;;;;;;0.00;0.00;;;;;;;;5082589;27;44710;-75